createdAt,value
2019-05-14T00:01:11.726Z,39.26
2019-05-14T00:03:41.801Z,39.35
2019-05-14T00:06:12.757Z,39.37
2019-05-14T00:08:43.714Z,39.44
2019-05-14T00:11:14.669Z,39.50
2019-05-14T00:13:45.634Z,39.53
2019-05-14T00:16:16.593Z,39.57
2019-05-14T00:18:47.834Z,39.59
2019-05-14T00:21:20.965Z,39.66
2019-05-14T00:23:51.554Z,39.65
2019-05-14T00:26:22.483Z,39.72
2019-05-14T00:28:53.443Z,39.75
2019-05-14T00:31:24.410Z,39.78
2019-05-14T00:33:55.367Z,39.74
2019-05-14T00:36:26.331Z,39.86
2019-05-14T00:38:57.311Z,39.93
2019-05-14T00:41:28.269Z,39.98
2019-05-14T00:43:59.230Z,40.07
2019-05-14T00:46:31.585Z,40.10
2019-05-14T00:49:02.627Z,40.18
2019-05-14T00:51:33.606Z,40.21
2019-05-14T00:54:04.636Z,40.24
2019-05-14T00:56:35.604Z,40.17
2019-05-14T00:59:06.559Z,40.22
2019-05-14T01:01:37.522Z,40.27
2019-05-14T01:04:08.481Z,40.34
2019-05-14T01:06:41.880Z,40.40
2019-05-14T01:09:12.094Z,40.44
2019-05-14T01:11:43.088Z,40.44
2019-05-14T01:14:14.047Z,40.53
2019-05-14T01:16:45.003Z,40.53
2019-05-14T01:19:16.929Z,40.63
2019-05-14T01:21:47.927Z,40.66
2019-05-14T01:24:18.883Z,40.74
2019-05-14T01:26:52.107Z,40.76
2019-05-14T01:29:22.698Z,40.84
2019-05-14T01:31:53.659Z,40.77
2019-05-14T01:34:24.644Z,40.88
2019-05-14T01:36:55.614Z,40.87
2019-05-14T01:39:27.337Z,40.84
2019-05-14T01:41:58.334Z,40.93
2019-05-14T01:44:31.727Z,40.97
2019-05-14T01:47:02.163Z,40.98
2019-05-14T01:49:33.145Z,41.06
2019-05-14T01:52:04.127Z,41.08
2019-05-14T01:54:35.077Z,41.10
2019-05-14T01:57:06.052Z,41.02
2019-05-14T01:59:37.021Z,41.11
2019-05-14T02:02:07.982Z,41.08
2019-05-14T02:04:38.950Z,41.13
2019-05-14T02:07:11.605Z,41.16
2019-05-14T02:09:42.671Z,41.19
2019-05-14T02:12:13.625Z,41.24
2019-05-14T02:14:44.602Z,41.23
2019-05-14T02:17:15.558Z,41.26
2019-05-14T02:19:46.517Z,41.34
2019-05-14T02:22:17.477Z,41.32
2019-05-14T02:24:48.645Z,41.31
2019-05-14T02:27:21.402Z,41.34
2019-05-14T02:29:52.265Z,41.26
2019-05-14T02:32:23.235Z,41.40
2019-05-14T02:34:54.221Z,41.37
2019-05-14T02:37:25.175Z,41.37
2019-05-14T02:39:59.460Z,41.42
2019-05-14T02:42:29.218Z,41.36
2019-05-14T02:45:00.164Z,41.43
2019-05-14T02:47:31.114Z,41.50
2019-05-14T02:50:02.178Z,41.49
2019-05-14T02:52:33.232Z,41.58
2019-05-14T02:55:05.519Z,41.63
2019-05-14T02:57:39.188Z,41.64
2019-05-14T03:00:10.552Z,41.71
2019-05-14T03:02:41.605Z,41.78
2019-05-14T03:05:12.769Z,41.83
2019-05-14T03:07:43.738Z,41.87
2019-05-14T03:10:14.879Z,41.94
2019-05-14T03:12:45.858Z,42.04
2019-05-14T03:15:19.826Z,42.01
2019-05-14T03:17:49.691Z,41.98
2019-05-14T03:20:20.641Z,42.03
2019-05-14T03:23:03.253Z,42.04
2019-05-14T03:25:24.314Z,42.04
2019-05-14T03:27:55.282Z,42.03
2019-05-14T03:30:31.639Z,42.04
2019-05-14T03:33:02.693Z,42.04
2019-05-14T03:35:41.556Z,42.10
2019-05-14T03:38:04.352Z,42.12
2019-05-14T03:40:35.315Z,42.16
2019-05-14T03:43:08.914Z,42.16
2019-05-14T03:45:39.298Z,42.24
2019-05-14T03:48:10.723Z,42.32
2019-05-14T03:50:41.803Z,42.46
2019-05-14T03:53:13.026Z,42.47
2019-05-14T03:55:43.989Z,42.53
2019-05-14T03:58:14.955Z,42.57
2019-05-14T04:01:02.296Z,42.61
2019-05-14T04:03:33.320Z,42.69
2019-05-14T04:06:04.349Z,42.69
2019-05-14T04:08:38.887Z,42.81
2019-05-14T04:11:09.761Z,42.80
2019-05-14T04:13:41.716Z,42.83
2019-05-14T04:16:14.814Z,42.92
2019-05-14T04:18:45.857Z,42.92
2019-05-14T04:21:20.488Z,42.99
2019-05-14T04:23:51.338Z,43.03
2019-05-14T04:26:22.330Z,42.59
2019-05-14T04:28:53.283Z,42.94
2019-05-14T04:31:24.232Z,43.05
2019-05-14T04:33:59.271Z,43.15
2019-05-14T04:36:30.248Z,43.19
2019-05-14T04:39:02.739Z,43.19
2019-05-14T04:41:33.700Z,43.27
2019-05-14T04:44:04.713Z,43.37
2019-05-14T04:46:39.176Z,43.37
2019-05-14T04:49:09.610Z,43.37
2019-05-14T04:51:40.803Z,43.42
2019-05-14T04:54:11.761Z,43.46
2019-05-14T04:56:42.716Z,43.48
2019-05-14T04:59:13.676Z,43.56
2019-05-14T05:01:44.676Z,43.62
2019-05-14T05:04:15.628Z,43.65
2019-05-14T05:06:49.632Z,43.66
2019-05-14T05:09:20.194Z,43.67
2019-05-14T05:11:51.357Z,43.70
2019-05-14T05:14:23.932Z,43.70
2019-05-14T05:16:55.056Z,43.79
2019-05-14T05:19:28.850Z,43.80
2019-05-14T05:21:58.874Z,43.83
2019-05-14T05:24:29.805Z,43.76
2019-05-14T05:27:00.757Z,43.77
2019-05-14T05:29:31.741Z,43.77
2019-05-14T05:32:02.697Z,43.71
2019-05-14T05:34:33.642Z,43.75
2019-05-14T05:37:04.633Z,43.75
2019-05-14T05:39:35.588Z,43.72
2019-05-14T05:42:08.982Z,43.84
2019-05-14T05:44:39.655Z,43.78
2019-05-14T05:47:10.591Z,43.80
2019-05-14T05:49:41.552Z,43.92
2019-05-14T05:52:12.514Z,44.00
2019-05-14T05:54:43.476Z,43.90
2019-05-14T05:57:14.437Z,44.02
2019-05-14T05:59:45.398Z,44.01
2019-05-14T06:02:18.593Z,43.93
2019-05-14T06:04:50.679Z,43.93
2019-05-14T06:07:21.706Z,43.95
2019-05-14T06:09:53.333Z,44.02
2019-05-14T06:12:24.301Z,43.98
2019-05-14T06:14:55.263Z,44.10
2019-05-14T06:17:28.443Z,44.03
2019-05-14T06:19:59.227Z,43.93
2019-05-14T06:22:30.281Z,43.73
2019-05-14T06:25:01.265Z,43.74
2019-05-14T06:27:32.304Z,43.81
2019-05-14T06:30:03.328Z,43.58
2019-05-14T06:32:34.309Z,43.74
2019-05-14T06:35:08.797Z,43.71
2019-05-14T06:37:40.013Z,43.63
2019-05-14T06:40:11.180Z,43.41
2019-05-14T06:42:42.142Z,43.37
2019-05-14T06:45:13.170Z,43.32
2019-05-14T06:47:44.189Z,43.21
2019-05-14T06:50:15.318Z,43.24
2019-05-14T06:52:46.274Z,43.30
2019-05-14T06:55:18.070Z,43.40
2019-05-14T06:57:49.218Z,43.17
2019-05-14T07:00:20.385Z,43.12
2019-05-14T07:02:51.368Z,42.91
2019-05-14T07:05:22.347Z,43.13
2019-05-14T07:07:53.346Z,43.17
2019-05-14T07:10:24.287Z,43.16
2019-05-14T07:12:55.240Z,42.90
2019-05-14T07:15:28.841Z,42.41
2019-05-14T07:17:58.887Z,41.83
2019-05-14T07:20:29.868Z,41.93
2019-05-14T07:23:00.822Z,41.60
2019-05-14T07:25:31.844Z,41.43
2019-05-14T07:28:02.756Z,41.34
2019-05-14T07:30:34.803Z,41.35
2019-05-14T07:33:05.817Z,41.42
2019-05-14T07:35:38.260Z,41.05
2019-05-14T07:38:09.345Z,40.82
2019-05-14T07:40:40.399Z,40.28
2019-05-14T07:43:11.358Z,40.64
2019-05-14T07:45:42.507Z,40.17
2019-05-14T07:48:13.462Z,40.48
2019-05-14T07:50:48.157Z,39.99
2019-05-14T07:53:18.048Z,39.59
2019-05-14T07:55:49.449Z,39.94
2019-05-14T07:58:20.410Z,39.63
2019-05-14T08:00:51.384Z,39.15
2019-05-14T08:03:22.337Z,39.17
2019-05-14T08:05:53.324Z,39.24
2019-05-14T08:08:24.279Z,39.11
2019-05-14T08:10:55.274Z,38.65
2019-05-14T08:13:28.269Z,39.09
2019-05-14T08:15:58.885Z,39.20
2019-05-14T08:18:29.853Z,39.09
2019-05-14T08:21:02.706Z,38.51
2019-05-14T08:23:33.694Z,38.51
2019-05-14T08:26:04.854Z,38.15
2019-05-14T08:28:38.042Z,37.39
2019-05-14T08:31:09.500Z,37.40
2019-05-14T08:33:40.659Z,37.16
2019-05-14T08:36:11.615Z,37.12
2019-05-14T08:38:45.403Z,37.12
2019-05-14T08:41:15.249Z,36.72
2019-05-14T08:43:48.668Z,36.73
2019-05-14T08:46:19.417Z,36.61
2019-05-14T08:48:51.251Z,36.75
2019-05-14T08:51:22.235Z,36.80
2019-05-14T08:53:53.234Z,36.36
2019-05-14T08:56:24.236Z,36.14
2019-05-14T08:58:55.194Z,36.03
2019-05-14T09:01:26.169Z,36.24
2019-05-14T09:03:59.583Z,36.30
2019-05-14T09:06:29.846Z,36.28
2019-05-14T09:09:00.797Z,35.67
2019-05-14T09:11:35.439Z,34.93
2019-05-14T09:14:04.708Z,34.55
2019-05-14T09:16:43.235Z,34.27
2019-05-14T09:19:08.780Z,34.33
2019-05-14T09:21:40.035Z,34.39
2019-05-14T09:24:10.999Z,34.51
2019-05-14T09:26:41.973Z,34.60
2019-05-14T09:29:22.132Z,33.95
2019-05-14T09:31:45.615Z,34.26
2019-05-14T09:34:19.403Z,33.87
2019-05-14T09:36:49.258Z,33.58
2019-05-14T09:39:20.214Z,33.76
2019-05-14T09:41:51.176Z,32.94
2019-05-14T09:44:22.136Z,32.92
2019-05-14T09:46:53.102Z,32.67
2019-05-14T09:49:24.063Z,32.67
2019-05-14T09:51:55.036Z,32.59
2019-05-14T09:54:28.467Z,32.54
2019-05-14T09:56:59.308Z,31.96
2019-05-14T09:59:30.383Z,31.70
2019-05-14T10:02:01.562Z,31.67
2019-05-14T10:04:32.528Z,32.14
2019-05-14T10:07:03.968Z,31.50
2019-05-14T10:09:34.930Z,31.22
2019-05-14T10:12:05.907Z,30.93
2019-05-14T10:14:39.053Z,30.87
2019-05-14T10:17:09.527Z,30.31
2019-05-14T10:19:40.501Z,30.17
2019-05-14T10:22:11.461Z,29.89
2019-05-14T10:24:42.511Z,29.79
2019-05-14T10:27:13.476Z,28.99
2019-05-14T10:29:44.433Z,28.89
2019-05-14T10:32:18.393Z,29.47
2019-05-14T10:34:48.635Z,29.61
2019-05-14T10:37:19.662Z,29.05
2019-05-14T10:39:50.632Z,29.04
2019-05-14T10:42:21.610Z,28.61
2019-05-14T10:44:52.565Z,28.71
2019-05-14T10:47:23.533Z,28.68
2019-05-14T10:49:54.489Z,28.86
2019-05-14T10:52:25.478Z,28.51
2019-05-14T10:54:59.109Z,28.29
2019-05-14T10:57:29.130Z,27.99
2019-05-14T11:00:00.464Z,28.23
2019-05-14T11:02:31.417Z,28.06
2019-05-14T11:05:02.378Z,27.60
2019-05-14T11:07:33.340Z,27.86
2019-05-14T11:10:09.045Z,28.27
2019-05-14T11:12:39.898Z,28.48
2019-05-14T11:15:11.050Z,28.18
2019-05-14T11:17:42.055Z,28.11
2019-05-14T11:20:13.279Z,27.54
2019-05-14T11:22:44.270Z,27.58
2019-05-14T11:25:16.105Z,27.86
2019-05-14T11:27:49.255Z,27.98
2019-05-14T11:30:19.852Z,27.68
2019-05-14T11:32:50.893Z,27.91
2019-05-14T11:35:21.946Z,27.90
2019-05-14T11:37:52.920Z,27.75
2019-05-14T11:40:23.885Z,27.78
2019-05-14T11:42:54.852Z,27.83
2019-05-14T11:45:25.883Z,27.98
2019-05-14T11:47:58.387Z,28.03
2019-05-14T11:50:29.574Z,27.66
2019-05-14T11:53:00.519Z,27.62
2019-05-14T11:55:31.500Z,27.21
2019-05-14T11:58:02.457Z,26.62
2019-05-14T12:00:33.507Z,26.66
2019-05-14T12:03:05.338Z,26.48
2019-05-14T12:05:38.702Z,26.63
2019-05-14T12:08:08.975Z,26.82
2019-05-14T12:10:39.964Z,26.56
2019-05-14T12:13:10.911Z,26.42
2019-05-14T12:15:41.907Z,26.85
2019-05-14T12:18:12.912Z,26.98
2019-05-14T12:20:43.936Z,27.04
2019-05-14T12:23:14.927Z,26.89
2019-05-14T12:25:48.922Z,26.66
2019-05-14T12:28:19.344Z,26.98
2019-05-14T12:30:50.319Z,26.86
2019-05-14T12:33:21.294Z,26.79
2019-05-14T12:35:52.259Z,26.44
2019-05-14T12:38:23.237Z,26.23
2019-05-14T12:40:54.194Z,26.41
2019-05-14T12:43:25.185Z,26.69
2019-05-14T12:45:59.122Z,26.84
2019-05-14T12:48:29.836Z,26.48
2019-05-14T12:51:03.036Z,26.63
2019-05-14T12:53:34.015Z,26.36
2019-05-14T12:56:04.979Z,26.30
2019-05-14T12:58:44.683Z,26.27
2019-05-14T13:01:09.389Z,26.34
2019-05-14T13:03:40.519Z,26.35
2019-05-14T13:06:11.487Z,25.98
2019-05-14T13:08:42.446Z,25.69
2019-05-14T13:11:13.423Z,25.64
2019-05-14T13:13:44.426Z,25.49
2019-05-14T13:16:15.422Z,25.40
2019-05-14T13:18:49.550Z,25.31
2019-05-14T13:21:19.465Z,25.29
2019-05-14T13:23:50.378Z,25.31
2019-05-14T13:26:21.339Z,25.12
2019-05-14T13:28:52.340Z,25.34
2019-05-14T13:31:24.920Z,24.93
2019-05-14T13:33:55.868Z,25.45
2019-05-14T13:36:28.742Z,25.37
2019-05-14T13:38:59.841Z,25.57
2019-05-14T13:41:30.842Z,25.72
2019-05-14T13:44:18.475Z,26.11
2019-05-14T13:46:36.964Z,25.27
2019-05-14T13:49:08.314Z,25.42
2019-05-14T13:51:39.277Z,25.50
2019-05-14T13:54:10.300Z,25.57
2019-05-14T13:56:43.141Z,25.28
2019-05-14T13:59:14.114Z,24.94
2019-05-14T14:01:45.076Z,25.24
2019-05-14T14:04:18.359Z,24.97
2019-05-14T14:06:49.137Z,25.28
2019-05-14T14:09:20.139Z,24.76
2019-05-14T14:11:51.120Z,24.88
2019-05-14T14:14:22.098Z,24.83
2019-05-14T14:16:53.139Z,24.59
2019-05-14T14:19:28.219Z,24.39
2019-05-14T14:21:59.345Z,24.50
2019-05-14T14:24:30.306Z,24.42
2019-05-14T14:27:01.290Z,24.45
2019-05-14T14:29:35.242Z,24.20
2019-05-14T14:32:11.118Z,24.40
2019-05-14T14:34:41.215Z,24.50
2019-05-14T14:37:11.544Z,24.61
2019-05-14T14:39:42.553Z,24.37
2019-05-14T14:42:14.489Z,24.09
2019-05-14T14:44:45.452Z,23.48
2019-05-14T14:47:18.870Z,23.37
2019-05-14T14:49:51.718Z,23.89
2019-05-14T14:52:22.443Z,23.94
2019-05-14T14:54:53.363Z,23.97
2019-05-14T14:57:24.349Z,23.76
2019-05-14T14:59:56.334Z,23.95
2019-05-14T15:02:28.925Z,24.15
2019-05-14T15:05:00.083Z,23.99
2019-05-14T15:07:31.073Z,24.12
2019-05-14T15:10:03.332Z,23.93
2019-05-14T15:12:35.969Z,24.17
2019-05-14T15:15:07.723Z,24.17
2019-05-14T15:17:39.415Z,24.03
2019-05-14T15:20:11.051Z,23.79
2019-05-14T15:22:42.039Z,24.16
2019-05-14T15:25:13.068Z,24.15
2019-05-14T15:27:44.053Z,24.33
2019-05-14T15:30:15.152Z,24.49
2019-05-14T15:32:51.033Z,24.24
2019-05-14T15:35:19.396Z,24.57
2019-05-14T15:37:52.086Z,24.48
2019-05-14T15:40:28.717Z,24.72
2019-05-14T15:43:01.899Z,24.66
2019-05-14T15:45:34.218Z,24.92
2019-05-14T15:48:05.267Z,24.55
2019-05-14T15:50:38.941Z,24.62
2019-05-14T15:53:11.285Z,24.45
2019-05-14T15:55:41.593Z,24.74
2019-05-14T15:58:12.581Z,24.64
2019-05-14T16:00:43.565Z,24.31
2019-05-14T16:03:14.564Z,24.50
2019-05-14T16:05:45.542Z,24.19
2019-05-14T16:08:24.662Z,24.35
2019-05-14T16:11:00.013Z,24.28
2019-05-14T16:13:28.664Z,24.37
2019-05-14T16:15:59.677Z,24.46
2019-05-14T16:18:30.632Z,24.57
2019-05-14T16:21:03.923Z,24.65
2019-05-14T16:23:34.875Z,24.59
2019-05-14T16:26:05.870Z,24.62
2019-05-14T16:28:39.155Z,24.31
2019-05-14T16:31:09.523Z,24.33
2019-05-14T16:33:40.939Z,24.22
2019-05-14T16:36:13.008Z,24.37
2019-05-14T16:38:43.978Z,24.44
2019-05-14T16:41:15.408Z,24.30
2019-05-14T16:43:49.175Z,24.18
2019-05-14T16:46:19.404Z,24.25
2019-05-14T16:48:50.379Z,24.41
2019-05-14T16:51:22.409Z,24.51
2019-05-14T16:53:53.365Z,24.35
2019-05-14T16:56:25.399Z,24.50
2019-05-14T16:58:58.355Z,24.36
2019-05-14T17:01:33.446Z,24.55
2019-05-14T17:04:02.779Z,24.64
2019-05-14T17:06:35.028Z,24.38
2019-05-14T17:09:08.849Z,24.55
2019-05-14T17:11:41.076Z,24.63
2019-05-14T17:14:12.026Z,24.58
2019-05-14T17:16:43.103Z,24.34
2019-05-14T17:19:14.061Z,24.30
2019-05-14T17:21:45.031Z,24.45
2019-05-14T17:24:16.000Z,24.32
2019-05-14T17:26:48.908Z,24.52
2019-05-14T17:29:19.612Z,24.28
2019-05-14T17:31:52.543Z,24.16
2019-05-14T17:34:23.501Z,24.23
2019-05-14T17:36:54.469Z,24.38
2019-05-14T17:39:25.425Z,24.37
2019-05-14T17:41:58.764Z,24.42
2019-05-14T17:44:29.057Z,24.58
2019-05-14T17:47:00.382Z,24.79
2019-05-14T17:49:32.930Z,24.74
2019-05-14T17:52:03.910Z,24.80
2019-05-14T17:54:34.883Z,24.86
2019-05-14T17:57:08.246Z,24.99
2019-05-14T17:59:39.151Z,24.97
2019-05-14T18:02:10.164Z,24.89
2019-05-14T18:04:41.125Z,24.91
2019-05-14T18:07:12.184Z,24.88
2019-05-14T18:09:43.165Z,24.74
2019-05-14T18:12:14.124Z,24.74
2019-05-14T18:14:45.111Z,24.88
2019-05-14T18:17:18.656Z,24.93
2019-05-14T18:19:48.753Z,25.01
2019-05-14T18:22:19.717Z,25.33
2019-05-14T18:24:50.750Z,25.33
2019-05-14T18:27:21.716Z,25.44
2019-05-14T18:29:53.364Z,25.48
2019-05-14T18:32:24.350Z,25.82
2019-05-14T18:34:55.313Z,26.00
2019-05-14T18:37:26.302Z,25.80
2019-05-14T18:39:58.671Z,25.88
2019-05-14T18:42:29.872Z,25.78
2019-05-14T18:45:02.660Z,25.82
2019-05-14T18:47:33.620Z,25.86
2019-05-14T18:50:09.017Z,25.82
2019-05-14T18:52:40.269Z,25.87
2019-05-14T18:55:11.500Z,26.09
2019-05-14T18:57:42.515Z,26.01
2019-05-14T19:00:13.908Z,26.14
2019-05-14T19:02:44.881Z,26.34
2019-05-14T19:05:18.336Z,26.48
2019-05-14T19:07:49.443Z,26.73
2019-05-14T19:10:20.470Z,26.67
2019-05-14T19:12:51.428Z,26.74
2019-05-14T19:15:22.386Z,26.72
2019-05-14T19:17:53.351Z,27.16
2019-05-14T19:20:25.218Z,27.45
2019-05-14T19:22:56.194Z,27.52
2019-05-14T19:25:27.202Z,27.44
2019-05-14T19:27:58.444Z,27.66
2019-05-14T19:30:29.436Z,27.72
2019-05-14T19:33:08.451Z,27.75
2019-05-14T19:35:39.557Z,27.91
2019-05-14T19:38:17.940Z,27.97
2019-05-14T19:40:50.780Z,28.13
2019-05-14T19:43:21.732Z,28.32
2019-05-14T19:45:52.741Z,28.37
2019-05-14T19:48:24.367Z,28.47
2019-05-14T19:50:55.374Z,28.54
2019-05-14T19:53:28.308Z,28.38
2019-05-14T19:55:59.410Z,28.46
2019-05-14T19:58:30.400Z,28.76
2019-05-14T20:01:01.351Z,28.89
2019-05-14T20:03:32.340Z,28.74
2019-05-14T20:06:03.774Z,28.73
2019-05-14T20:08:34.733Z,28.89
2019-05-14T20:11:05.702Z,29.12
2019-05-14T20:13:38.902Z,29.04
2019-05-14T20:16:09.330Z,29.20
2019-05-14T20:18:40.299Z,29.14
2019-05-14T20:21:11.243Z,29.34
2019-05-14T20:23:42.275Z,29.24
2019-05-14T20:26:13.266Z,29.38
2019-05-14T20:28:44.793Z,29.49
2019-05-14T20:31:17.962Z,29.59
2019-05-14T20:33:48.696Z,29.80
2019-05-14T20:36:19.640Z,29.71
2019-05-14T20:38:50.614Z,29.58
2019-05-14T20:41:21.581Z,29.92
2019-05-14T20:43:52.530Z,29.64
2019-05-14T20:46:24.466Z,29.83
2019-05-14T20:48:55.434Z,29.67
2019-05-14T20:51:29.955Z,29.95
2019-05-14T20:53:59.964Z,29.77
2019-05-14T20:56:30.933Z,29.84
2019-05-14T20:59:01.881Z,29.94
2019-05-14T21:01:32.848Z,29.97
2019-05-14T21:04:03.879Z,30.15
2019-05-14T21:06:34.830Z,30.35
2019-05-14T21:09:07.411Z,30.31
2019-05-14T21:11:38.630Z,30.47
2019-05-14T21:14:09.697Z,30.58
2019-05-14T21:16:40.642Z,30.38
2019-05-14T21:19:11.592Z,30.33
2019-05-14T21:21:42.554Z,30.72
2019-05-14T21:24:13.515Z,30.71
2019-05-14T21:26:44.492Z,30.37
2019-05-14T21:29:15.456Z,30.68
2019-05-14T21:31:49.435Z,30.91
2019-05-14T21:34:20.399Z,30.90
2019-05-14T21:36:51.359Z,30.62
2019-05-14T21:39:22.413Z,30.72
2019-05-14T21:41:58.447Z,30.53
2019-05-14T21:44:29.034Z,30.55
2019-05-14T21:47:00.678Z,30.51
2019-05-14T21:49:31.659Z,31.06
2019-05-14T21:52:02.619Z,30.54
2019-05-14T21:54:33.579Z,31.09
2019-05-14T21:57:04.546Z,30.71
2019-05-14T21:59:35.510Z,30.87
2019-05-14T22:02:07.446Z,30.86
2019-05-14T22:04:38.628Z,31.04
2019-05-14T22:07:09.670Z,31.12
2019-05-14T22:09:41.383Z,31.10
2019-05-14T22:12:12.400Z,31.14
2019-05-14T22:14:44.625Z,31.01
2019-05-14T22:17:15.599Z,31.21
2019-05-14T22:19:46.575Z,31.34
2019-05-14T22:22:18.675Z,31.20
2019-05-14T22:24:49.764Z,31.27
2019-05-14T22:27:20.729Z,31.21
2019-05-14T22:29:51.707Z,31.15
2019-05-14T22:32:22.661Z,31.22
2019-05-14T22:34:53.638Z,30.96
2019-05-14T22:37:38.843Z,31.44
2019-05-14T22:40:10.453Z,31.12
2019-05-14T22:42:41.420Z,31.17
2019-05-14T22:45:12.801Z,31.26
2019-05-14T22:47:44.949Z,31.45
2019-05-14T22:50:18.298Z,31.30
2019-05-14T22:52:48.940Z,31.39
2019-05-14T22:55:19.902Z,31.54
2019-05-14T22:57:50.883Z,31.50
2019-05-14T23:00:21.884Z,31.58
2019-05-14T23:02:52.840Z,31.72
2019-05-14T23:05:23.875Z,31.65
2019-05-14T23:07:54.909Z,31.55
2019-05-14T23:10:25.869Z,31.66
2019-05-14T23:12:58.562Z,31.65
2019-05-14T23:15:29.613Z,31.65
2019-05-14T23:18:00.568Z,31.79
2019-05-14T23:20:31.548Z,31.63
2019-05-14T23:23:02.507Z,31.64
2019-05-14T23:25:33.485Z,31.79
2019-05-14T23:28:04.470Z,31.97
2019-05-14T23:30:35.506Z,31.98
2019-05-14T23:33:06.502Z,31.96
2019-05-14T23:35:39.077Z,32.04
2019-05-14T23:38:10.292Z,32.07
2019-05-14T23:40:41.250Z,31.90
2019-05-14T23:43:12.266Z,31.93
2019-05-14T23:45:44.363Z,32.13
2019-05-14T23:48:15.357Z,32.11
2019-05-14T23:50:48.819Z,32.21
2019-05-14T23:53:19.483Z,32.56
2019-05-14T23:55:50.488Z,32.19
2019-05-14T23:58:21.475Z,32.19
